createdAt,value
2022-10-04T00:02:34.280Z,2.45
2022-10-04T00:05:15.073Z,3.00
2022-10-04T00:07:58.981Z,2.53
2022-10-04T00:10:34.508Z,2.78
2022-10-04T00:13:07.740Z,2.20
2022-10-04T00:15:37.886Z,2.45
2022-10-04T00:18:10.822Z,2.83
2022-10-04T00:20:55.695Z,2.85
2022-10-04T00:23:25.663Z,2.03
2022-10-04T00:26:06.499Z,2.20
2022-10-04T00:31:22.460Z,2.38
2022-10-04T00:34:03.715Z,2.28
2022-10-04T00:36:55.152Z,2.20
2022-10-04T00:39:37.608Z,2.00
2022-10-04T00:42:33.266Z,3.03
2022-10-04T00:45:16.046Z,2.13
2022-10-04T00:47:49.207Z,2.15
2022-10-04T00:50:44.908Z,2.10
2022-10-04T00:53:41.775Z,2.08
2022-10-04T00:56:34.727Z,2.50
2022-10-04T00:59:46.628Z,2.83
2022-10-04T01:02:31.614Z,2.42
2022-10-04T01:05:07.393Z,2.25
2022-10-04T01:07:47.843Z,2.10
2022-10-04T01:10:27.199Z,2.10
2022-10-04T01:13:28.014Z,3.97
2022-10-04T01:16:18.427Z,2.20
2022-10-04T01:18:46.685Z,2.60
2022-10-04T01:21:19.924Z,1.92
2022-10-04T01:23:57.457Z,2.88
2022-10-04T01:26:30.459Z,2.35
2022-10-04T01:29:15.891Z,2.17
2022-10-04T01:31:52.428Z,2.03
2022-10-04T01:34:25.684Z,3.08
2022-10-04T01:36:57.477Z,2.47
2022-10-04T01:39:26.964Z,2.67
2022-10-04T01:42:21.105Z,2.40
2022-10-04T01:45:03.218Z,2.22
2022-10-04T01:47:55.300Z,2.10
2022-10-04T01:51:15.292Z,2.30
2022-10-04T01:53:56.862Z,2.00
2022-10-04T01:56:34.523Z,1.98
2022-10-04T01:59:07.791Z,2.03
2022-10-04T02:01:51.142Z,2.30
2022-10-04T02:04:41.199Z,2.28
2022-10-04T02:07:14.964Z,2.13
2022-10-04T02:09:47.781Z,1.90
2022-10-04T02:12:19.958Z,2.47
2022-10-04T02:14:53.315Z,2.03
2022-10-04T02:17:31.431Z,1.92
2022-10-04T02:20:01.594Z,1.90
2022-10-04T02:22:30.005Z,2.63
2022-10-04T02:24:57.897Z,2.15
2022-10-04T02:27:31.417Z,1.70
2022-10-04T02:30:06.302Z,1.80
2022-10-04T02:32:52.788Z,3.10
2022-10-04T02:35:21.261Z,2.08
2022-10-04T02:37:59.133Z,2.15
2022-10-04T02:40:32.624Z,2.47
2022-10-04T02:43:08.678Z,2.90
2022-10-04T02:46:07.428Z,2.30
2022-10-04T02:48:55.060Z,2.63
2022-10-04T02:51:37.449Z,2.75
2022-10-04T02:54:27.745Z,2.63
2022-10-04T02:56:56.964Z,2.83
2022-10-04T02:59:25.171Z,2.75
2022-10-04T03:02:01.890Z,2.78
2022-10-04T03:04:38.970Z,3.70
2022-10-04T03:07:09.256Z,2.50
2022-10-04T03:09:38.296Z,3.40
2022-10-04T03:12:06.499Z,2.53
2022-10-04T03:14:34.536Z,2.38
2022-10-04T03:17:06.305Z,3.42
2022-10-04T03:19:35.553Z,2.67
2022-10-04T03:22:12.176Z,2.92
2022-10-04T03:24:56.174Z,2.13
2022-10-04T03:27:31.500Z,2.40
2022-10-04T03:29:59.668Z,3.20
2022-10-04T03:32:30.603Z,3.10
2022-10-04T03:35:02.587Z,2.85
2022-10-04T03:37:35.253Z,2.65
2022-10-04T03:40:04.168Z,2.10
2022-10-04T03:42:36.324Z,2.70
2022-10-04T03:45:18.541Z,2.70
2022-10-04T03:47:50.575Z,3.22
2022-10-04T03:50:26.989Z,2.28
2022-10-04T03:52:59.036Z,2.15
2022-10-04T03:55:34.785Z,2.50
2022-10-04T03:58:02.886Z,2.22
2022-10-04T04:00:30.394Z,2.40
2022-10-04T04:03:03.007Z,2.88
2022-10-04T04:05:54.242Z,2.70
2022-10-04T04:08:33.535Z,2.45
2022-10-04T04:11:05.945Z,2.83
2022-10-04T04:14:14.141Z,3.03
2022-10-04T04:16:41.724Z,2.72
2022-10-04T04:19:16.727Z,2.90
2022-10-04T04:21:44.591Z,2.80
2022-10-04T04:24:32.334Z,3.47
2022-10-04T04:27:05.421Z,2.63
2022-10-04T04:29:53.385Z,2.92
2022-10-04T04:32:25.885Z,2.83
2022-10-04T04:35:07.249Z,2.92
2022-10-04T04:37:38.930Z,3.40
2022-10-04T04:40:25.176Z,3.05
2022-10-04T04:42:53.280Z,3.10
2022-10-04T04:45:29.737Z,3.00
2022-10-04T04:47:58.736Z,3.58
2022-10-04T04:50:35.025Z,2.95
2022-10-04T04:53:38.275Z,3.53
2022-10-04T04:56:10.603Z,3.58
2022-10-04T04:58:46.692Z,3.25
2022-10-04T05:01:26.859Z,3.88
2022-10-04T05:04:23.777Z,4.88
2022-10-04T05:07:06.616Z,3.65
2022-10-04T05:09:41.422Z,3.80
2022-10-04T05:12:21.640Z,4.55
2022-10-04T05:14:53.126Z,4.28
2022-10-04T05:17:25.158Z,4.22
2022-10-04T05:19:57.931Z,3.67
2022-10-04T05:22:27.042Z,4.55
2022-10-04T05:25:09.289Z,4.88
2022-10-04T05:27:40.394Z,5.68
2022-10-04T05:30:32.432Z,4.93
2022-10-04T05:33:41.226Z,3.70
2022-10-04T05:36:11.154Z,4.75
2022-10-04T05:39:28.327Z,4.57
2022-10-04T05:42:37.283Z,4.13
2022-10-04T05:45:25.210Z,3.58
2022-10-04T05:47:55.955Z,5.22
2022-10-04T05:50:42.044Z,3.92
2022-10-04T05:53:42.226Z,4.65
2022-10-04T05:57:04.138Z,4.18
2022-10-04T06:00:03.353Z,4.32
2022-10-04T06:02:51.419Z,4.07
2022-10-04T06:05:35.000Z,3.85
2022-10-04T06:08:24.780Z,3.28
2022-10-04T06:11:33.490Z,2.87
2022-10-04T06:14:58.654Z,3.85
2022-10-04T06:17:45.039Z,4.68
2022-10-04T06:20:35.522Z,5.00
2022-10-04T06:23:11.961Z,4.93
2022-10-04T06:26:02.993Z,3.80
2022-10-04T06:28:35.950Z,3.92
2022-10-04T06:31:36.130Z,3.63
2022-10-04T06:35:07.020Z,4.68
2022-10-04T06:38:00.296Z,3.45
2022-10-04T06:40:55.104Z,3.40
2022-10-04T06:43:56.871Z,3.30
2022-10-04T06:47:04.256Z,3.42
2022-10-04T06:50:44.135Z,2.85
2022-10-04T06:53:32.296Z,3.20
2022-10-04T06:56:49.996Z,2.60
2022-10-04T06:59:38.078Z,3.00
2022-10-04T07:02:36.426Z,3.22
2022-10-04T07:05:33.342Z,2.45
2022-10-04T07:08:35.649Z,2.00
2022-10-04T07:11:53.679Z,2.78
2022-10-04T07:14:37.729Z,2.40
2022-10-04T07:17:20.033Z,3.88
2022-10-04T07:19:50.359Z,3.17
2022-10-04T07:22:38.269Z,2.60
2022-10-04T07:25:14.864Z,1.88
2022-10-04T07:28:27.608Z,3.05
2022-10-04T07:31:13.309Z,1.83
2022-10-04T07:33:54.203Z,1.60
2022-10-04T07:36:47.360Z,1.83
2022-10-04T07:39:17.095Z,1.10
2022-10-04T07:41:56.404Z,1.70
2022-10-04T07:44:43.073Z,1.48
2022-10-04T07:47:23.146Z,1.98
2022-10-04T07:49:50.651Z,2.33
2022-10-04T07:52:32.893Z,2.60
2022-10-04T07:55:13.862Z,1.85
2022-10-04T07:58:14.973Z,2.55
2022-10-04T08:01:13.983Z,2.60
2022-10-04T08:04:30.382Z,2.40
2022-10-04T08:07:05.513Z,2.90
2022-10-04T08:10:14.582Z,2.92
2022-10-04T08:13:00.461Z,2.65
2022-10-04T08:15:40.999Z,2.53
2022-10-04T08:18:41.525Z,1.98
2022-10-04T08:21:16.173Z,2.92
2022-10-04T08:24:16.785Z,2.22
2022-10-04T08:30:12.412Z,1.85
2022-10-04T08:33:12.330Z,2.88
2022-10-04T08:35:52.593Z,2.08
2022-10-04T08:38:59.333Z,2.10
2022-10-04T08:41:54.174Z,1.63
2022-10-04T08:45:16.882Z,1.48
2022-10-04T08:47:49.832Z,1.00
2022-10-04T08:51:05.643Z,1.55
2022-10-04T08:54:04.022Z,1.65
2022-10-04T08:57:06.211Z,1.25
2022-10-04T08:59:54.714Z,1.40
2022-10-04T09:02:55.599Z,2.20
2022-10-04T09:06:13.342Z,1.70
2022-10-04T09:08:55.489Z,1.10
2022-10-04T09:11:51.058Z,1.33
2022-10-04T09:15:05.277Z,1.60
2022-10-04T09:17:41.146Z,1.80
2022-10-04T09:21:08.433Z,1.95
2022-10-04T09:24:12.410Z,1.80
2022-10-04T09:26:59.466Z,1.25
2022-10-04T09:29:49.653Z,1.27
2022-10-04T09:33:01.630Z,1.42
2022-10-04T09:35:53.877Z,1.80
2022-10-04T09:38:42.633Z,0.95
2022-10-04T09:41:47.317Z,0.93
2022-10-04T09:44:46.638Z,1.20
2022-10-04T09:47:16.969Z,1.20
2022-10-04T09:50:24.319Z,1.88
2022-10-04T09:53:00.520Z,1.70
2022-10-04T09:56:14.685Z,1.80
2022-10-04T09:59:22.191Z,2.10
2022-10-04T10:02:01.105Z,2.17
2022-10-04T10:05:07.333Z,1.75
2022-10-04T10:07:43.310Z,1.50
2022-10-04T10:10:48.367Z,1.60
2022-10-04T10:13:45.627Z,1.23
2022-10-04T10:16:40.962Z,1.25
2022-10-04T10:19:45.945Z,1.30
2022-10-04T10:23:00.694Z,1.10
2022-10-04T10:25:55.167Z,1.00
2022-10-04T10:28:29.184Z,1.25
2022-10-04T10:31:47.722Z,1.10
2022-10-04T10:34:36.625Z,1.33
2022-10-04T10:37:12.466Z,1.13
2022-10-04T10:40:07.670Z,1.10
2022-10-04T10:42:51.204Z,0.82
2022-10-04T10:45:53.271Z,0.90
2022-10-04T10:49:09.425Z,1.00
2022-10-04T10:52:17.999Z,1.23
2022-10-04T10:55:34.702Z,1.00
2022-10-04T10:58:42.077Z,1.00
2022-10-04T11:01:53.556Z,0.80
2022-10-04T11:04:51.538Z,0.77
2022-10-04T11:08:30.099Z,0.88
2022-10-04T11:11:15.548Z,0.80
2022-10-04T11:14:33.313Z,1.00
2022-10-04T11:17:50.241Z,0.90
2022-10-04T11:21:13.954Z,0.90
2022-10-04T11:24:14.236Z,1.10
2022-10-04T11:27:10.995Z,0.93
2022-10-04T11:30:13.955Z,1.63
2022-10-04T11:33:07.983Z,1.17
2022-10-04T11:35:39.398Z,1.10
2022-10-04T11:38:48.917Z,1.15
2022-10-04T11:44:26.686Z,1.05
2022-10-04T11:47:16.070Z,0.70
2022-10-04T11:50:03.195Z,1.00
2022-10-04T11:53:03.366Z,0.93
2022-10-04T11:56:04.118Z,1.00
2022-10-04T11:59:11.475Z,0.65
2022-10-04T12:01:59.911Z,0.95
2022-10-04T12:04:58.291Z,1.23
2022-10-04T12:07:40.177Z,0.85
2022-10-04T12:10:40.143Z,1.10
2022-10-04T12:13:58.357Z,0.93
2022-10-04T12:16:56.732Z,1.10
2022-10-04T12:19:45.659Z,1.73
2022-10-04T12:22:33.979Z,1.10
2022-10-04T12:25:47.041Z,1.10
2022-10-04T12:28:39.957Z,1.00
2022-10-04T12:31:28.839Z,0.90
2022-10-04T12:34:26.541Z,0.80
2022-10-04T12:37:20.823Z,1.08
2022-10-04T12:40:21.474Z,0.98
2022-10-04T12:43:28.245Z,0.90
2022-10-04T12:46:27.502Z,0.85
2022-10-04T12:49:06.967Z,0.80
2022-10-04T12:52:01.270Z,1.27
2022-10-04T12:54:45.766Z,0.88
2022-10-04T12:57:47.388Z,0.65
2022-10-04T13:00:26.074Z,0.63
2022-10-04T13:03:54.499Z,1.10
2022-10-04T13:07:05.569Z,1.00
2022-10-04T13:10:23.460Z,1.17
2022-10-04T13:13:20.261Z,0.82
2022-10-04T13:19:50.510Z,0.90
2022-10-04T13:22:58.065Z,1.08
2022-10-04T13:26:04.540Z,1.20
2022-10-04T13:29:13.456Z,1.15
2022-10-04T13:32:30.262Z,1.80
2022-10-04T13:35:09.145Z,1.10
2022-10-04T13:38:20.230Z,0.90
2022-10-04T13:41:22.441Z,1.05
2022-10-04T13:44:08.170Z,1.02
2022-10-04T13:47:10.256Z,1.02
2022-10-04T13:50:23.102Z,0.73
2022-10-04T13:53:51.825Z,1.30
2022-10-04T13:59:52.464Z,2.00
2022-10-04T14:03:02.935Z,1.20
2022-10-04T14:06:03.940Z,1.35
2022-10-04T14:09:07.795Z,2.20
2022-10-04T14:12:13.645Z,1.73
2022-10-04T14:15:12.224Z,2.05
2022-10-04T14:18:10.551Z,2.60
2022-10-04T14:20:59.840Z,2.80
2022-10-04T14:23:44.600Z,1.45
2022-10-04T14:26:51.299Z,1.42
2022-10-04T14:30:08.254Z,1.73
2022-10-04T14:33:12.615Z,2.60
2022-10-04T14:35:44.556Z,2.13
2022-10-04T14:38:48.206Z,1.73
2022-10-04T14:41:45.276Z,1.70
2022-10-04T14:44:56.405Z,2.50
2022-10-04T14:48:12.513Z,2.00
2022-10-04T14:51:30.032Z,14.77
2022-10-04T14:54:26.300Z,9.50
2022-10-04T14:56:59.330Z,15.50
2022-10-04T14:59:51.001Z,4.55
2022-10-04T15:02:31.316Z,1.70
2022-10-04T15:05:19.435Z,1.83
2022-10-04T15:07:56.142Z,1.42
2022-10-04T15:10:37.194Z,1.77
2022-10-04T15:13:47.172Z,2.83
2022-10-04T15:16:29.181Z,1.30
2022-10-04T15:19:19.726Z,1.00
2022-10-04T15:21:50.521Z,1.58
2022-10-04T15:24:25.675Z,1.60
2022-10-04T15:27:35.560Z,1.45
2022-10-04T15:30:10.653Z,1.10
2022-10-04T15:32:55.330Z,1.20
2022-10-04T15:36:02.417Z,1.02
2022-10-04T15:38:53.830Z,1.10
2022-10-04T15:41:48.979Z,2.38
2022-10-04T15:45:18.923Z,1.95
2022-10-04T15:48:21.698Z,1.42
2022-10-04T15:51:25.669Z,1.23
2022-10-04T15:54:13.605Z,1.42
2022-10-04T15:56:40.733Z,1.80
2022-10-04T15:59:42.246Z,1.73
2022-10-04T16:02:32.000Z,1.80
2022-10-04T16:05:29.688Z,1.10
2022-10-04T16:08:36.346Z,1.10
2022-10-04T16:11:50.930Z,1.35
2022-10-04T16:15:14.118Z,1.60
2022-10-04T16:18:25.266Z,1.65
2022-10-04T16:20:55.560Z,1.98
2022-10-04T16:23:35.671Z,2.85
2022-10-04T16:26:17.036Z,2.00
2022-10-04T16:28:47.041Z,2.58
2022-10-04T16:31:21.606Z,5.05
2022-10-04T16:34:28.216Z,4.95
2022-10-04T16:36:59.819Z,3.33
2022-10-04T16:40:00.290Z,3.67
2022-10-04T16:43:04.719Z,2.50
2022-10-04T16:46:07.128Z,3.50
2022-10-04T16:49:02.373Z,4.35
2022-10-04T16:52:19.278Z,4.68
2022-10-04T16:54:59.757Z,4.93
2022-10-04T16:57:27.993Z,3.83
2022-10-04T16:59:57.601Z,5.25
2022-10-04T17:03:10.375Z,3.67
2022-10-04T17:06:25.648Z,3.53
2022-10-04T17:09:18.972Z,3.33
2022-10-04T17:12:25.679Z,4.40
2022-10-04T17:15:14.405Z,3.00
2022-10-04T17:18:13.207Z,4.15
2022-10-04T17:20:43.464Z,3.13
2022-10-04T17:23:44.485Z,3.88
2022-10-04T17:26:47.274Z,3.45
2022-10-04T17:29:29.250Z,4.32
2022-10-04T17:32:17.478Z,3.08
2022-10-04T17:34:57.500Z,3.63
2022-10-04T17:37:47.197Z,4.07
2022-10-04T17:40:17.189Z,4.50
2022-10-04T17:43:25.557Z,3.72
2022-10-04T17:46:24.048Z,4.40
2022-10-04T17:49:30.517Z,4.45
2022-10-04T17:52:24.416Z,4.38
2022-10-04T17:55:16.220Z,3.30
2022-10-04T17:58:11.440Z,3.95
2022-10-04T18:01:26.683Z,4.07
2022-10-04T18:04:12.312Z,4.20
2022-10-04T18:06:51.275Z,4.15
2022-10-04T18:09:43.504Z,4.63
2022-10-04T18:12:46.989Z,4.60
2022-10-04T18:16:01.680Z,4.10
2022-10-04T18:18:38.367Z,5.05
2022-10-04T18:21:20.319Z,5.07
2022-10-04T18:23:57.247Z,5.78
2022-10-04T18:26:32.401Z,6.63
2022-10-04T18:29:01.809Z,5.93
2022-10-04T18:31:41.513Z,5.82
2022-10-04T18:34:30.402Z,5.30
2022-10-04T18:37:20.332Z,5.10
2022-10-04T18:39:53.223Z,5.70
2022-10-04T18:42:37.531Z,5.50
2022-10-04T18:45:30.259Z,5.85
2022-10-04T18:48:02.101Z,5.45
2022-10-04T18:50:43.683Z,5.88
2022-10-04T18:53:36.049Z,5.90
2022-10-04T18:56:10.052Z,5.63
2022-10-04T18:59:32.539Z,5.70
2022-10-04T19:02:34.904Z,5.80
2022-10-04T19:05:28.927Z,5.78
2022-10-04T19:08:00.434Z,6.78
2022-10-04T19:10:39.118Z,6.18
2022-10-04T19:13:29.270Z,6.30
2022-10-04T19:16:45.778Z,5.25
2022-10-04T19:19:40.874Z,6.22
2022-10-04T19:22:43.427Z,6.28
2022-10-04T19:25:24.229Z,6.25
2022-10-04T19:28:20.878Z,5.88
2022-10-04T19:31:29.299Z,6.30
2022-10-04T19:34:18.143Z,5.80
2022-10-04T19:37:09.310Z,7.32
2022-10-04T19:39:58.285Z,6.75
2022-10-04T19:43:18.964Z,6.88
2022-10-04T19:46:11.746Z,6.68
2022-10-04T19:48:51.057Z,6.97
2022-10-04T19:51:51.098Z,6.32
2022-10-04T19:54:39.674Z,6.50
2022-10-04T19:57:15.018Z,6.28
2022-10-04T19:59:45.981Z,7.18
2022-10-04T20:02:17.478Z,7.22
2022-10-04T20:04:48.946Z,7.10
2022-10-04T20:07:28.428Z,7.68
2022-10-04T20:10:25.701Z,7.05
2022-10-04T20:13:13.587Z,6.03
2022-10-04T20:15:42.986Z,7.40
2022-10-04T20:18:32.089Z,7.50
2022-10-04T20:21:00.239Z,8.15
2022-10-04T20:23:39.436Z,7.15
2022-10-04T20:26:55.504Z,6.82
2022-10-04T20:29:38.193Z,6.65
2022-10-04T20:32:08.568Z,7.28
2022-10-04T20:34:38.969Z,7.82
2022-10-04T20:37:10.982Z,7.57
2022-10-04T20:39:42.007Z,6.25
2022-10-04T20:42:19.794Z,6.72
2022-10-04T20:45:22.197Z,6.75
2022-10-04T20:47:57.531Z,6.75
2022-10-04T20:50:42.271Z,6.57
2022-10-04T20:53:23.064Z,7.00
2022-10-04T20:55:57.258Z,6.32
2022-10-04T20:58:35.613Z,6.80
2022-10-04T21:01:26.783Z,6.95
2022-10-04T21:03:54.262Z,7.97
2022-10-04T21:06:21.523Z,5.75
2022-10-04T21:08:48.807Z,7.68
2022-10-04T21:11:22.264Z,7.15
2022-10-04T21:13:56.506Z,7.35
2022-10-04T21:16:46.031Z,6.00
2022-10-04T21:19:44.661Z,6.75
2022-10-04T21:22:35.918Z,6.68
2022-10-04T21:25:31.585Z,6.78
2022-10-04T21:28:32.596Z,8.45
2022-10-04T21:33:27.857Z,6.53
2022-10-04T21:35:55.220Z,7.15
2022-10-04T21:38:22.528Z,6.97
2022-10-04T21:40:49.763Z,6.60
2022-10-04T21:43:16.986Z,7.03
2022-10-04T21:45:44.378Z,6.82
2022-10-04T21:48:11.632Z,7.28
2022-10-04T21:50:38.941Z,6.90
2022-10-04T21:53:06.200Z,6.78
2022-10-04T21:55:33.426Z,6.57
2022-10-04T21:58:00.740Z,7.65
2022-10-04T22:00:27.953Z,5.95
2022-10-04T22:02:55.261Z,5.80
2022-10-04T22:05:22.500Z,5.43
2022-10-04T22:07:49.926Z,5.32
2022-10-04T22:10:17.845Z,6.25
2022-10-04T22:12:45.202Z,5.53
2022-10-04T22:15:12.563Z,5.88
2022-10-04T22:17:39.858Z,5.40
2022-10-04T22:20:07.584Z,5.15
2022-10-04T22:22:39.624Z,5.38
2022-10-04T22:25:20.858Z,6.50
2022-10-04T22:30:31.342Z,5.63
2022-10-04T22:33:00.770Z,5.57
2022-10-04T22:35:31.876Z,6.07
2022-10-04T22:38:00.300Z,6.22
2022-10-04T22:40:29.191Z,6.55
2022-10-04T22:43:00.928Z,6.78
2022-10-04T22:45:33.463Z,6.30
2022-10-04T22:48:07.927Z,5.43
2022-10-04T22:50:37.380Z,6.47
2022-10-04T22:53:14.293Z,6.15
2022-10-04T22:55:41.896Z,6.43
2022-10-04T22:58:14.567Z,6.50
2022-10-04T23:00:44.029Z,6.30
2022-10-04T23:03:31.966Z,6.20
2022-10-04T23:06:00.836Z,5.95
2022-10-04T23:08:29.420Z,5.35
2022-10-04T23:11:00.774Z,5.50
2022-10-04T23:13:29.163Z,4.80
2022-10-04T23:16:01.966Z,5.65
2022-10-04T23:18:30.981Z,5.63
2022-10-04T23:21:01.165Z,6.20
2022-10-04T23:23:30.710Z,7.25
2022-10-04T23:25:57.920Z,6.43
2022-10-04T23:28:26.902Z,6.18
2022-10-04T23:31:25.864Z,4.95
2022-10-04T23:33:56.870Z,5.40
2022-10-04T23:36:24.522Z,6.20
2022-10-04T23:38:59.079Z,5.50
2022-10-04T23:41:27.045Z,6.03
2022-10-04T23:43:54.217Z,7.28
2022-10-04T23:46:24.441Z,6.82
2022-10-04T23:48:51.781Z,5.57
2022-10-04T23:51:20.123Z,5.85
2022-10-04T23:53:49.854Z,4.78
2022-10-04T23:56:29.366Z,5.78
2022-10-04T23:58:58.875Z,5.63
